sensor_id;sensor_type;location;lat;lon;timestamp;P1;durP1;ratioP1;P2;durP2;ratioP2
67747;SDS011;54543;50.712;6.070;2023-02-05T00:02:00;13.82;;;6.80;;
67747;SDS011;54543;50.712;6.070;2023-02-05T00:04:26;12.50;;;4.72;;
67747;SDS011;54543;50.712;6.070;2023-02-05T00:06:51;13.65;;;6.40;;
67747;SDS011;54543;50.712;6.070;2023-02-05T00:09:17;13.02;;;6.18;;
67747;SDS011;54543;50.712;6.070;2023-02-05T00:11:42;14.27;;;6.13;;
67747;SDS011;54543;50.712;6.070;2023-02-05T00:14:08;10.13;;;5.20;;
67747;SDS011;54543;50.712;6.070;2023-02-05T00:16:34;12.80;;;5.38;;
67747;SDS011;54543;50.712;6.070;2023-02-05T00:19:00;10.68;;;5.20;;
67747;SDS011;54543;50.712;6.070;2023-02-05T00:21:26;11.18;;;5.75;;
67747;SDS011;54543;50.712;6.070;2023-02-05T00:23:52;9.52;;;3.95;;
67747;SDS011;54543;50.712;6.070;2023-02-05T00:26:18;9.85;;;4.65;;
67747;SDS011;54543;50.712;6.070;2023-02-05T00:28:44;9.10;;;4.00;;
67747;SDS011;54543;50.712;6.070;2023-02-05T00:31:11;10.50;;;4.57;;
67747;SDS011;54543;50.712;6.070;2023-02-05T00:33:41;9.43;;;4.30;;
67747;SDS011;54543;50.712;6.070;2023-02-05T00:36:07;11.85;;;5.65;;
67747;SDS011;54543;50.712;6.070;2023-02-05T00:38:33;12.48;;;5.50;;
67747;SDS011;54543;50.712;6.070;2023-02-05T00:41:00;13.88;;;5.93;;
67747;SDS011;54543;50.712;6.070;2023-02-05T00:43:26;14.43;;;5.80;;
67747;SDS011;54543;50.712;6.070;2023-02-05T00:45:51;13.43;;;5.95;;
67747;SDS011;54543;50.712;6.070;2023-02-05T00:48:16;11.80;;;5.72;;
67747;SDS011;54543;50.712;6.070;2023-02-05T00:50:42;13.52;;;6.38;;
67747;SDS011;54543;50.712;6.070;2023-02-05T00:53:07;14.57;;;6.63;;
67747;SDS011;54543;50.712;6.070;2023-02-05T00:55:33;15.52;;;6.25;;
67747;SDS011;54543;50.712;6.070;2023-02-05T00:57:58;15.15;;;6.43;;
67747;SDS011;54543;50.712;6.070;2023-02-05T01:00:25;14.30;;;5.90;;
67747;SDS011;54543;50.712;6.070;2023-02-05T01:02:52;12.25;;;5.80;;
67747;SDS011;54543;50.712;6.070;2023-02-05T01:05:18;13.02;;;6.32;;
67747;SDS011;54543;50.712;6.070;2023-02-05T01:07:43;15.50;;;6.47;;
67747;SDS011;54543;50.712;6.070;2023-02-05T01:10:09;17.65;;;6.90;;
67747;SDS011;54543;50.712;6.070;2023-02-05T01:12:35;17.33;;;7.40;;
67747;SDS011;54543;50.712;6.070;2023-02-05T01:15:00;18.40;;;7.72;;
67747;SDS011;54543;50.712;6.070;2023-02-05T01:17:28;15.75;;;6.57;;
67747;SDS011;54543;50.712;6.070;2023-02-05T01:19:53;17.10;;;5.93;;
67747;SDS011;54543;50.712;6.070;2023-02-05T01:22:19;16.23;;;6.07;;
67747;SDS011;54543;50.712;6.070;2023-02-05T01:24:45;14.18;;;5.68;;
67747;SDS011;54543;50.712;6.070;2023-02-05T01:27:10;17.63;;;6.35;;
67747;SDS011;54543;50.712;6.070;2023-02-05T01:29:36;12.82;;;6.63;;
67747;SDS011;54543;50.712;6.070;2023-02-05T01:32:01;14.85;;;6.22;;
67747;SDS011;54543;50.712;6.070;2023-02-05T01:34:27;14.80;;;6.38;;
67747;SDS011;54543;50.712;6.070;2023-02-05T01:36:52;18.15;;;6.57;;
67747;SDS011;54543;50.712;6.070;2023-02-05T01:39:18;16.00;;;5.72;;
67747;SDS011;54543;50.712;6.070;2023-02-05T01:41:43;16.25;;;6.75;;
67747;SDS011;54543;50.712;6.070;2023-02-05T01:44:11;19.52;;;7.00;;
67747;SDS011;54543;50.712;6.070;2023-02-05T01:46:46;21.83;;;7.63;;
67747;SDS011;54543;50.712;6.070;2023-02-05T01:49:18;22.05;;;7.50;;
67747;SDS011;54543;50.712;6.070;2023-02-05T01:51:46;16.77;;;7.43;;
67747;SDS011;54543;50.712;6.070;2023-02-05T01:54:13;22.48;;;7.60;;
67747;SDS011;54543;50.712;6.070;2023-02-05T01:56:44;27.33;;;8.43;;
67747;SDS011;54543;50.712;6.070;2023-02-05T01:59:22;26.35;;;9.35;;
67747;SDS011;54543;50.712;6.070;2023-02-05T02:01:51;31.42;;;11.48;;
67747;SDS011;54543;50.712;6.070;2023-02-05T02:04:51;27.48;;;9.80;;
67747;SDS011;54543;50.712;6.070;2023-02-05T02:07:12;29.92;;;11.95;;
67747;SDS011;54543;50.712;6.070;2023-02-05T02:09:40;34.33;;;11.60;;
67747;SDS011;54543;50.712;6.070;2023-02-05T02:12:11;31.30;;;12.18;;
67747;SDS011;54543;50.712;6.070;2023-02-05T02:14:40;28.85;;;11.65;;
67747;SDS011;54543;50.712;6.070;2023-02-05T02:17:09;36.10;;;12.82;;
67747;SDS011;54543;50.712;6.070;2023-02-05T02:19:40;36.33;;;13.40;;
67747;SDS011;54543;50.712;6.070;2023-02-05T02:22:20;32.47;;;12.95;;
67747;SDS011;54543;50.712;6.070;2023-02-05T02:30:30;35.75;;;12.43;;
67747;SDS011;54543;50.712;6.070;2023-02-05T02:33:07;33.30;;;11.93;;
67747;SDS011;54543;50.712;6.070;2023-02-05T02:35:59;34.03;;;12.77;;
67747;SDS011;54543;50.712;6.070;2023-02-05T02:38:50;34.45;;;12.52;;
67747;SDS011;54543;50.712;6.070;2023-02-05T02:44:15;36.05;;;13.93;;
67747;SDS011;54543;50.712;6.070;2023-02-05T02:46:55;36.30;;;14.52;;
67747;SDS011;54543;50.712;6.070;2023-02-05T02:49:47;36.33;;;14.20;;
67747;SDS011;54543;50.712;6.070;2023-02-05T02:52:23;39.85;;;14.52;;
67747;SDS011;54543;50.712;6.070;2023-02-05T02:54:51;39.22;;;15.07;;
67747;SDS011;54543;50.712;6.070;2023-02-05T02:57:20;36.67;;;15.23;;
67747;SDS011;54543;50.712;6.070;2023-02-05T02:59:47;45.53;;;16.30;;
67747;SDS011;54543;50.712;6.070;2023-02-05T03:02:15;41.90;;;15.40;;
67747;SDS011;54543;50.712;6.070;2023-02-05T03:04:43;35.20;;;12.93;;
67747;SDS011;54543;50.712;6.070;2023-02-05T03:07:15;36.58;;;14.00;;
67747;SDS011;54543;50.712;6.070;2023-02-05T03:12:36;47.70;;;18.05;;
67747;SDS011;54543;50.712;6.070;2023-02-05T03:15:01;43.10;;;17.10;;
67747;SDS011;54543;50.712;6.070;2023-02-05T03:17:27;44.47;;;16.90;;
67747;SDS011;54543;50.712;6.070;2023-02-05T03:19:58;38.78;;;15.30;;
67747;SDS011;54543;50.712;6.070;2023-02-05T03:22:30;43.50;;;15.85;;
67747;SDS011;54543;50.712;6.070;2023-02-05T03:24:55;43.80;;;17.58;;
67747;SDS011;54543;50.712;6.070;2023-02-05T03:27:20;46.50;;;17.35;;
67747;SDS011;54543;50.712;6.070;2023-02-05T03:29:47;48.53;;;19.00;;
67747;SDS011;54543;50.712;6.070;2023-02-05T03:43:13;42.03;;;16.15;;
67747;SDS011;54543;50.712;6.070;2023-02-05T03:52:18;35.55;;;13.57;;
67747;SDS011;54543;50.712;6.070;2023-02-05T04:00:31;34.47;;;12.73;;
67747;SDS011;54543;50.712;6.070;2023-02-05T04:02:57;35.67;;;14.68;;
67747;SDS011;54543;50.712;6.070;2023-02-05T04:05:23;32.90;;;14.00;;
67747;SDS011;54543;50.712;6.070;2023-02-05T04:07:49;42.80;;;18.08;;
67747;SDS011;54543;50.712;6.070;2023-02-05T04:10:16;29.10;;;13.13;;
67747;SDS011;54543;50.712;6.070;2023-02-05T04:12:43;38.53;;;15.90;;
67747;SDS011;54543;50.712;6.070;2023-02-05T04:15:09;44.67;;;18.77;;
67747;SDS011;54543;50.712;6.070;2023-02-05T04:17:35;36.08;;;16.08;;
67747;SDS011;54543;50.712;6.070;2023-02-05T04:20:01;32.75;;;13.05;;
67747;SDS011;54543;50.712;6.070;2023-02-05T04:22:28;39.25;;;14.13;;
67747;SDS011;54543;50.712;6.070;2023-02-05T04:24:53;39.53;;;15.38;;
67747;SDS011;54543;50.712;6.070;2023-02-05T04:27:19;32.33;;;13.57;;
67747;SDS011;54543;50.712;6.070;2023-02-05T04:29:44;36.00;;;14.82;;
67747;SDS011;54543;50.712;6.070;2023-02-05T04:32:10;36.35;;;14.68;;
67747;SDS011;54543;50.712;6.070;2023-02-05T04:34:35;40.60;;;16.45;;
67747;SDS011;54543;50.712;6.070;2023-02-05T04:37:01;45.05;;;19.45;;
67747;SDS011;54543;50.712;6.070;2023-02-05T04:39:26;46.03;;;17.17;;
67747;SDS011;54543;50.712;6.070;2023-02-05T04:41:52;35.40;;;15.85;;
67747;SDS011;54543;50.712;6.070;2023-02-05T04:44:17;35.78;;;15.20;;
67747;SDS011;54543;50.712;6.070;2023-02-05T04:46:43;35.17;;;16.30;;
67747;SDS011;54543;50.712;6.070;2023-02-05T04:49:09;36.95;;;16.88;;
67747;SDS011;54543;50.712;6.070;2023-02-05T04:51:34;42.35;;;19.13;;
67747;SDS011;54543;50.712;6.070;2023-02-05T04:54:00;43.90;;;18.58;;
67747;SDS011;54543;50.712;6.070;2023-02-05T04:56:25;35.40;;;15.27;;
67747;SDS011;54543;50.712;6.070;2023-02-05T04:58:51;41.35;;;19.38;;
67747;SDS011;54543;50.712;6.070;2023-02-05T05:01:17;35.80;;;16.17;;
67747;SDS011;54543;50.712;6.070;2023-02-05T05:03:44;41.10;;;18.42;;
67747;SDS011;54543;50.712;6.070;2023-02-05T05:06:10;39.80;;;17.30;;
67747;SDS011;54543;50.712;6.070;2023-02-05T05:08:36;38.33;;;17.40;;
67747;SDS011;54543;50.712;6.070;2023-02-05T05:11:05;35.47;;;17.67;;
67747;SDS011;54543;50.712;6.070;2023-02-05T05:13:33;31.83;;;14.38;;
67747;SDS011;54543;50.712;6.070;2023-02-05T05:15:59;31.88;;;15.00;;
67747;SDS011;54543;50.712;6.070;2023-02-05T05:18:26;35.72;;;15.68;;
67747;SDS011;54543;50.712;6.070;2023-02-05T05:20:51;31.08;;;15.07;;
67747;SDS011;54543;50.712;6.070;2023-02-05T05:23:17;35.85;;;17.13;;
67747;SDS011;54543;50.712;6.070;2023-02-05T05:25:43;31.88;;;14.85;;
67747;SDS011;54543;50.712;6.070;2023-02-05T05:28:10;34.35;;;16.77;;
67747;SDS011;54543;50.712;6.070;2023-02-05T05:30:39;36.35;;;16.60;;
67747;SDS011;54543;50.712;6.070;2023-02-05T05:33:06;26.48;;;13.05;;
67747;SDS011;54543;50.712;6.070;2023-02-05T05:35:32;35.03;;;16.52;;
67747;SDS011;54543;50.712;6.070;2023-02-05T05:37:57;38.67;;;16.75;;
67747;SDS011;54543;50.712;6.070;2023-02-05T05:40:25;35.47;;;15.98;;
67747;SDS011;54543;50.712;6.070;2023-02-05T05:45:58;31.05;;;15.52;;
67747;SDS011;54543;50.712;6.070;2023-02-05T05:48:23;32.13;;;15.50;;
67747;SDS011;54543;50.712;6.070;2023-02-05T05:50:49;35.28;;;16.13;;
67747;SDS011;54543;50.712;6.070;2023-02-05T05:53:15;43.80;;;20.80;;
67747;SDS011;54543;50.712;6.070;2023-02-05T05:55:41;33.78;;;16.70;;
67747;SDS011;54543;50.712;6.070;2023-02-05T05:58:07;44.13;;;21.45;;
67747;SDS011;54543;50.712;6.070;2023-02-05T06:00:33;28.70;;;15.98;;
67747;SDS011;54543;50.712;6.070;2023-02-05T06:03:00;46.00;;;19.73;;
67747;SDS011;54543;50.712;6.070;2023-02-05T06:05:25;38.05;;;17.20;;
67747;SDS011;54543;50.712;6.070;2023-02-05T06:07:51;35.15;;;17.27;;
67747;SDS011;54543;50.712;6.070;2023-02-05T06:10:16;32.53;;;16.17;;
67747;SDS011;54543;50.712;6.070;2023-02-05T06:12:42;32.22;;;16.48;;
67747;SDS011;54543;50.712;6.070;2023-02-05T06:15:07;26.95;;;14.60;;
67747;SDS011;54543;50.712;6.070;2023-02-05T06:17:33;34.47;;;16.98;;
67747;SDS011;54543;50.712;6.070;2023-02-05T06:19:59;38.90;;;19.42;;
67747;SDS011;54543;50.712;6.070;2023-02-05T06:22:24;33.50;;;15.90;;
67747;SDS011;54543;50.712;6.070;2023-02-05T06:24:50;34.97;;;18.13;;
67747;SDS011;54543;50.712;6.070;2023-02-05T06:27:16;31.67;;;15.65;;
67747;SDS011;54543;50.712;6.070;2023-02-05T06:29:41;28.73;;;14.93;;
67747;SDS011;54543;50.712;6.070;2023-02-05T06:32:07;27.48;;;14.57;;
67747;SDS011;54543;50.712;6.070;2023-02-05T06:34:32;30.63;;;14.48;;
67747;SDS011;54543;50.712;6.070;2023-02-05T06:36:58;29.30;;;13.73;;
67747;SDS011;54543;50.712;6.070;2023-02-05T06:39:23;26.63;;;14.20;;
67747;SDS011;54543;50.712;6.070;2023-02-05T06:41:49;30.23;;;14.75;;
67747;SDS011;54543;50.712;6.070;2023-02-05T06:44:14;34.58;;;15.93;;
67747;SDS011;54543;50.712;6.070;2023-02-05T06:46:40;23.77;;;13.20;;
67747;SDS011;54543;50.712;6.070;2023-02-05T06:49:05;24.42;;;12.80;;
67747;SDS011;54543;50.712;6.070;2023-02-05T06:51:31;31.98;;;16.80;;
67747;SDS011;54543;50.712;6.070;2023-02-05T06:53:56;31.55;;;16.02;;
67747;SDS011;54543;50.712;6.070;2023-02-05T06:56:24;33.10;;;15.57;;
67747;SDS011;54543;50.712;6.070;2023-02-05T06:58:49;33.45;;;16.20;;
67747;SDS011;54543;50.712;6.070;2023-02-05T07:01:14;28.70;;;14.57;;
67747;SDS011;54543;50.712;6.070;2023-02-05T07:03:40;33.20;;;17.25;;
67747;SDS011;54543;50.712;6.070;2023-02-05T07:06:06;30.70;;;14.93;;
67747;SDS011;54543;50.712;6.070;2023-02-05T07:08:32;32.05;;;16.42;;
67747;SDS011;54543;50.712;6.070;2023-02-05T07:10:58;30.80;;;16.33;;
67747;SDS011;54543;50.712;6.070;2023-02-05T07:13:24;34.97;;;17.40;;
67747;SDS011;54543;50.712;6.070;2023-02-05T07:15:51;30.17;;;15.68;;
67747;SDS011;54543;50.712;6.070;2023-02-05T07:18:16;29.98;;;14.90;;
67747;SDS011;54543;50.712;6.070;2023-02-05T07:20:42;27.00;;;14.98;;
67747;SDS011;54543;50.712;6.070;2023-02-05T07:23:07;29.02;;;13.70;;
67747;SDS011;54543;50.712;6.070;2023-02-05T07:25:33;20.13;;;9.93;;
67747;SDS011;54543;50.712;6.070;2023-02-05T07:28:05;24.35;;;12.35;;
67747;SDS011;54543;50.712;6.070;2023-02-05T07:30:32;26.27;;;12.25;;
67747;SDS011;54543;50.712;6.070;2023-02-05T07:32:59;25.60;;;12.07;;
67747;SDS011;54543;50.712;6.070;2023-02-05T07:35:30;26.88;;;13.13;;
67747;SDS011;54543;50.712;6.070;2023-02-05T07:37:57;29.08;;;15.52;;
67747;SDS011;54543;50.712;6.070;2023-02-05T07:40:23;22.38;;;12.15;;
67747;SDS011;54543;50.712;6.070;2023-02-05T07:42:49;24.42;;;10.52;;
67747;SDS011;54543;50.712;6.070;2023-02-05T07:45:14;23.75;;;11.98;;
67747;SDS011;54543;50.712;6.070;2023-02-05T07:47:40;27.10;;;13.82;;
67747;SDS011;54543;50.712;6.070;2023-02-05T07:50:06;22.23;;;10.98;;
67747;SDS011;54543;50.712;6.070;2023-02-05T07:52:32;21.65;;;10.90;;
67747;SDS011;54543;50.712;6.070;2023-02-05T07:54:57;18.20;;;9.98;;
67747;SDS011;54543;50.712;6.070;2023-02-05T07:57:23;26.05;;;13.38;;
67747;SDS011;54543;50.712;6.070;2023-02-05T07:59:50;20.10;;;11.50;;
67747;SDS011;54543;50.712;6.070;2023-02-05T08:02:16;19.63;;;11.70;;
67747;SDS011;54543;50.712;6.070;2023-02-05T08:04:41;19.70;;;10.27;;
67747;SDS011;54543;50.712;6.070;2023-02-05T08:07:08;20.17;;;10.20;;
67747;SDS011;54543;50.712;6.070;2023-02-05T08:09:36;18.20;;;10.18;;
67747;SDS011;54543;50.712;6.070;2023-02-05T08:12:02;16.33;;;8.90;;
67747;SDS011;54543;50.712;6.070;2023-02-05T08:14:28;16.63;;;9.32;;
67747;SDS011;54543;50.712;6.070;2023-02-05T08:16:55;20.58;;;9.80;;
67747;SDS011;54543;50.712;6.070;2023-02-05T08:19:22;16.45;;;9.35;;
67747;SDS011;54543;50.712;6.070;2023-02-05T08:21:49;15.80;;;7.97;;
67747;SDS011;54543;50.712;6.070;2023-02-05T08:24:15;13.88;;;7.88;;
67747;SDS011;54543;50.712;6.070;2023-02-05T08:26:41;13.40;;;7.80;;
67747;SDS011;54543;50.712;6.070;2023-02-05T08:29:07;9.35;;;5.72;;
67747;SDS011;54543;50.712;6.070;2023-02-05T08:31:34;9.70;;;5.70;;
67747;SDS011;54543;50.712;6.070;2023-02-05T08:33:59;10.35;;;5.05;;
67747;SDS011;54543;50.712;6.070;2023-02-05T08:36:26;11.43;;;6.18;;
67747;SDS011;54543;50.712;6.070;2023-02-05T08:38:52;9.50;;;4.97;;
67747;SDS011;54543;50.712;6.070;2023-02-05T08:41:18;7.82;;;4.03;;
67747;SDS011;54543;50.712;6.070;2023-02-05T08:43:44;7.72;;;3.30;;
67747;SDS011;54543;50.712;6.070;2023-02-05T08:46:12;5.93;;;2.65;;
67747;SDS011;54543;50.712;6.070;2023-02-05T08:48:40;6.05;;;3.28;;
67747;SDS011;54543;50.712;6.070;2023-02-05T08:51:08;5.18;;;2.47;;
67747;SDS011;54543;50.712;6.070;2023-02-05T08:53:34;3.83;;;1.98;;
67747;SDS011;54543;50.712;6.070;2023-02-05T08:56:00;7.15;;;1.90;;
67747;SDS011;54543;50.712;6.070;2023-02-05T08:58:29;5.93;;;2.13;;
67747;SDS011;54543;50.712;6.070;2023-02-05T09:01:02;4.50;;;1.83;;
67747;SDS011;54543;50.712;6.070;2023-02-05T09:03:36;5.97;;;1.25;;
67747;SDS011;54543;50.712;6.070;2023-02-05T09:06:09;3.20;;;1.67;;
67747;SDS011;54543;50.712;6.070;2023-02-05T09:08:36;3.08;;;1.27;;
67747;SDS011;54543;50.712;6.070;2023-02-05T09:11:02;2.10;;;1.00;;
67747;SDS011;54543;50.712;6.070;2023-02-05T09:13:27;2.08;;;1.20;;
67747;SDS011;54543;50.712;6.070;2023-02-05T09:15:53;2.60;;;1.25;;
67747;SDS011;54543;50.712;6.070;2023-02-05T09:18:19;2.63;;;0.88;;
67747;SDS011;54543;50.712;6.070;2023-02-05T09:20:45;1.92;;;0.82;;
67747;SDS011;54543;50.712;6.070;2023-02-05T09:23:13;3.13;;;1.40;;
67747;SDS011;54543;50.712;6.070;2023-02-05T09:25:40;5.47;;;1.73;;
67747;SDS011;54543;50.712;6.070;2023-02-05T09:28:07;2.95;;;1.00;;
67747;SDS011;54543;50.712;6.070;2023-02-05T09:30:34;2.50;;;0.90;;
67747;SDS011;54543;50.712;6.070;2023-02-05T09:33:00;3.03;;;0.90;;
67747;SDS011;54543;50.712;6.070;2023-02-05T09:35:26;5.07;;;1.13;;
67747;SDS011;54543;50.712;6.070;2023-02-05T09:37:51;4.57;;;1.33;;
67747;SDS011;54543;50.712;6.070;2023-02-05T09:40:21;2.80;;;0.95;;
67747;SDS011;54543;50.712;6.070;2023-02-05T09:50:31;2.97;;;1.15;;
67747;SDS011;54543;50.712;6.070;2023-02-05T09:53:05;5.95;;;1.30;;
67747;SDS011;54543;50.712;6.070;2023-02-05T09:55:36;8.77;;;1.15;;
67747;SDS011;54543;50.712;6.070;2023-02-05T09:58:15;3.53;;;0.95;;
67747;SDS011;54543;50.712;6.070;2023-02-05T10:00:48;5.38;;;1.67;;
67747;SDS011;54543;50.712;6.070;2023-02-05T10:11:28;4.28;;;1.25;;
67747;SDS011;54543;50.712;6.070;2023-02-05T10:14:14;5.57;;;1.75;;
67747;SDS011;54543;50.712;6.070;2023-02-05T10:36:12;8.40;;;2.08;;
67747;SDS011;54543;50.712;6.070;2023-02-05T10:38:41;4.60;;;1.10;;
67747;SDS011;54543;50.712;6.070;2023-02-05T10:43:50;6.13;;;1.10;;
67747;SDS011;54543;50.712;6.070;2023-02-05T10:46:21;4.70;;;1.25;;
67747;SDS011;54543;50.712;6.070;2023-02-05T10:49:15;10.35;;;1.30;;
67747;SDS011;54543;50.712;6.070;2023-02-05T10:51:43;4.22;;;0.90;;
67747;SDS011;54543;50.712;6.070;2023-02-05T10:54:14;6.60;;;1.40;;
67747;SDS011;54543;50.712;6.070;2023-02-05T10:56:42;7.65;;;1.40;;
67747;SDS011;54543;50.712;6.070;2023-02-05T10:59:09;6.70;;;1.48;;
67747;SDS011;54543;50.712;6.070;2023-02-05T11:01:42;3.88;;;1.00;;
67747;SDS011;54543;50.712;6.070;2023-02-05T11:06:54;7.68;;;1.38;;
67747;SDS011;54543;50.712;6.070;2023-02-05T11:11:52;4.20;;;1.15;;
67747;SDS011;54543;50.712;6.070;2023-02-05T11:14:30;6.72;;;1.30;;
67747;SDS011;54543;50.712;6.070;2023-02-05T11:16:57;8.85;;;2.15;;
67747;SDS011;54543;50.712;6.070;2023-02-05T11:19:28;5.88;;;1.33;;
67747;SDS011;54543;50.712;6.070;2023-02-05T11:21:55;5.43;;;1.10;;
67747;SDS011;54543;50.712;6.070;2023-02-05T11:24:33;11.27;;;1.48;;
67747;SDS011;54543;50.712;6.070;2023-02-05T11:29:54;6.53;;;1.40;;
67747;SDS011;54543;50.712;6.070;2023-02-05T11:35:35;6.72;;;1.60;;
67747;SDS011;54543;50.712;6.070;2023-02-05T11:40:31;5.90;;;1.33;;
67747;SDS011;54543;50.712;6.070;2023-02-05T11:43:06;5.15;;;1.33;;
67747;SDS011;54543;50.712;6.070;2023-02-05T11:45:41;7.10;;;2.22;;
67747;SDS011;54543;50.712;6.070;2023-02-05T11:48:48;2.30;;;1.00;;
67747;SDS011;54543;50.712;6.070;2023-02-05T11:51:13;8.10;;;1.55;;
67747;SDS011;54543;50.712;6.070;2023-02-05T11:53:54;6.22;;;1.35;;
67747;SDS011;54543;50.712;6.070;2023-02-05T11:56:22;10.70;;;1.55;;
67747;SDS011;54543;50.712;6.070;2023-02-05T11:58:59;5.20;;;1.50;;
67747;SDS011;54543;50.712;6.070;2023-02-05T12:01:26;17.23;;;2.15;;
67747;SDS011;54543;50.712;6.070;2023-02-05T12:04:00;5.78;;;1.58;;
67747;SDS011;54543;50.712;6.070;2023-02-05T12:09:19;9.88;;;2.65;;
67747;SDS011;54543;50.712;6.070;2023-02-05T12:25:48;13.50;;;2.30;;
67747;SDS011;54543;50.712;6.070;2023-02-05T12:31:32;9.48;;;1.95;;
67747;SDS011;54543;50.712;6.070;2023-02-05T12:34:34;4.07;;;1.17;;
67747;SDS011;54543;50.712;6.070;2023-02-05T12:40:27;12.75;;;1.98;;
67747;SDS011;54543;50.712;6.070;2023-02-05T12:56:57;9.55;;;1.52;;
67747;SDS011;54543;50.712;6.070;2023-02-05T12:59:32;9.00;;;2.15;;
67747;SDS011;54543;50.712;6.070;2023-02-05T13:04:44;6.55;;;1.60;;
67747;SDS011;54543;50.712;6.070;2023-02-05T13:09:54;7.72;;;1.63;;
67747;SDS011;54543;50.712;6.070;2023-02-05T13:12:23;5.97;;;1.60;;
67747;SDS011;54543;50.712;6.070;2023-02-05T13:15:03;10.77;;;2.70;;
67747;SDS011;54543;50.712;6.070;2023-02-05T13:17:45;12.13;;;1.83;;
67747;SDS011;54543;50.712;6.070;2023-02-05T13:20:30;9.30;;;1.75;;
67747;SDS011;54543;50.712;6.070;2023-02-05T13:23:18;12.43;;;2.15;;
67747;SDS011;54543;50.712;6.070;2023-02-05T13:26:02;16.10;;;4.18;;
67747;SDS011;54543;50.712;6.070;2023-02-05T13:31:50;8.80;;;2.05;;
67747;SDS011;54543;50.712;6.070;2023-02-05T13:33:52;7.40;;;2.20;;
67747;SDS011;54543;50.712;6.070;2023-02-05T13:36:34;10.30;;;1.73;;
67747;SDS011;54543;50.712;6.070;2023-02-05T13:59:17;7.35;;;1.20;;
67747;SDS011;54543;50.712;6.070;2023-02-05T14:02:19;8.10;;;1.50;;
67747;SDS011;54543;50.712;6.070;2023-02-05T14:04:55;7.55;;;1.50;;
67747;SDS011;54543;50.712;6.070;2023-02-05T14:07:29;14.48;;;1.92;;
67747;SDS011;54543;50.712;6.070;2023-02-05T14:12:31;4.75;;;1.60;;
67747;SDS011;54543;50.712;6.070;2023-02-05T14:20:50;6.20;;;1.30;;
67747;SDS011;54543;50.712;6.070;2023-02-05T14:30:54;4.57;;;1.20;;
67747;SDS011;54543;50.712;6.070;2023-02-05T14:39:02;7.88;;;1.20;;
67747;SDS011;54543;50.712;6.070;2023-02-05T14:41:43;2.88;;;0.82;;
67747;SDS011;54543;50.712;6.070;2023-02-05T14:44:25;4.80;;;1.25;;
67747;SDS011;54543;50.712;6.070;2023-02-05T14:52:05;5.13;;;1.67;;
67747;SDS011;54543;50.712;6.070;2023-02-05T14:54:43;6.80;;;1.55;;
67747;SDS011;54543;50.712;6.070;2023-02-05T14:59:59;8.00;;;2.13;;
67747;SDS011;54543;50.712;6.070;2023-02-05T15:05:30;7.20;;;1.33;;
67747;SDS011;54543;50.712;6.070;2023-02-05T15:08:58;6.50;;;1.30;;
67747;SDS011;54543;50.712;6.070;2023-02-05T15:13:35;8.25;;;1.50;;
67747;SDS011;54543;50.712;6.070;2023-02-05T15:21:21;10.15;;;1.90;;
67747;SDS011;54543;50.712;6.070;2023-02-05T15:23:50;11.77;;;1.70;;
67747;SDS011;54543;50.712;6.070;2023-02-05T15:29:09;12.23;;;3.05;;
67747;SDS011;54543;50.712;6.070;2023-02-05T15:36:52;7.18;;;1.35;;
67747;SDS011;54543;50.712;6.070;2023-02-05T15:41:55;7.30;;;1.40;;
67747;SDS011;54543;50.712;6.070;2023-02-05T15:44:27;8.05;;;1.23;;
67747;SDS011;54543;50.712;6.070;2023-02-05T15:46:54;9.88;;;1.88;;
67747;SDS011;54543;50.712;6.070;2023-02-05T15:49:27;7.63;;;2.17;;
67747;SDS011;54543;50.712;6.070;2023-02-05T15:52:04;5.88;;;1.20;;
67747;SDS011;54543;50.712;6.070;2023-02-05T15:54:32;11.38;;;2.00;;
67747;SDS011;54543;50.712;6.070;2023-02-05T15:56:59;6.60;;;1.67;;
67747;SDS011;54543;50.712;6.070;2023-02-05T15:59:28;6.97;;;1.25;;
67747;SDS011;54543;50.712;6.070;2023-02-05T16:02:02;8.70;;;1.70;;
67747;SDS011;54543;50.712;6.070;2023-02-05T16:04:36;5.28;;;1.05;;
67747;SDS011;54543;50.712;6.070;2023-02-05T16:07:15;7.97;;;1.50;;
67747;SDS011;54543;50.712;6.070;2023-02-05T16:09:46;8.35;;;1.00;;
67747;SDS011;54543;50.712;6.070;2023-02-05T16:12:14;7.07;;;1.50;;
67747;SDS011;54543;50.712;6.070;2023-02-05T16:14:40;10.35;;;1.67;;
67747;SDS011;54543;50.712;6.070;2023-02-05T16:19:35;8.88;;;1.30;;
67747;SDS011;54543;50.712;6.070;2023-02-05T16:24:48;9.27;;;1.50;;
67747;SDS011;54543;50.712;6.070;2023-02-05T16:27:23;7.20;;;1.52;;
67747;SDS011;54543;50.712;6.070;2023-02-05T16:30:25;8.07;;;1.42;;
67747;SDS011;54543;50.712;6.070;2023-02-05T16:35:49;4.03;;;1.30;;
67747;SDS011;54543;50.712;6.070;2023-02-05T16:38:15;7.72;;;1.52;;
67747;SDS011;54543;50.712;6.070;2023-02-05T16:40:44;4.53;;;1.10;;
67747;SDS011;54543;50.712;6.070;2023-02-05T16:43:34;7.07;;;1.27;;
67747;SDS011;54543;50.712;6.070;2023-02-05T16:48:35;6.53;;;1.23;;
67747;SDS011;54543;50.712;6.070;2023-02-05T16:51:02;6.55;;;1.50;;
67747;SDS011;54543;50.712;6.070;2023-02-05T16:53:30;9.05;;;1.80;;
67747;SDS011;54543;50.712;6.070;2023-02-05T16:55:58;5.10;;;1.80;;
67747;SDS011;54543;50.712;6.070;2023-02-05T16:58:46;10.73;;;2.25;;
67747;SDS011;54543;50.712;6.070;2023-02-05T17:01:27;6.85;;;2.03;;
67747;SDS011;54543;50.712;6.070;2023-02-05T17:03:57;8.85;;;1.58;;
67747;SDS011;54543;50.712;6.070;2023-02-05T17:06:22;6.05;;;1.85;;
67747;SDS011;54543;50.712;6.070;2023-02-05T17:08:49;4.88;;;1.40;;
67747;SDS011;54543;50.712;6.070;2023-02-05T17:11:36;5.03;;;1.17;;
67747;SDS011;54543;50.712;6.070;2023-02-05T17:14:11;6.78;;;1.30;;
67747;SDS011;54543;50.712;6.070;2023-02-05T17:17:14;7.55;;;1.15;;
67747;SDS011;54543;50.712;6.070;2023-02-05T17:19:40;9.48;;;1.40;;
67747;SDS011;54543;50.712;6.070;2023-02-05T17:24:38;6.50;;;1.25;;
67747;SDS011;54543;50.712;6.070;2023-02-05T17:27:15;8.75;;;2.53;;
67747;SDS011;54543;50.712;6.070;2023-02-05T17:29:51;8.43;;;1.30;;
67747;SDS011;54543;50.712;6.070;2023-02-05T17:32:17;6.78;;;1.40;;
67747;SDS011;54543;50.712;6.070;2023-02-05T17:34:44;12.35;;;1.70;;
67747;SDS011;54543;50.712;6.070;2023-02-05T17:37:10;5.53;;;1.25;;
67747;SDS011;54543;50.712;6.070;2023-02-05T17:39:36;7.70;;;1.40;;
67747;SDS011;54543;50.712;6.070;2023-02-05T17:42:02;7.40;;;1.42;;
67747;SDS011;54543;50.712;6.070;2023-02-05T17:44:28;9.38;;;2.55;;
67747;SDS011;54543;50.712;6.070;2023-02-05T17:46:55;10.48;;;1.45;;
67747;SDS011;54543;50.712;6.070;2023-02-05T17:49:21;9.48;;;1.42;;
67747;SDS011;54543;50.712;6.070;2023-02-05T17:51:47;10.25;;;1.67;;
67747;SDS011;54543;50.712;6.070;2023-02-05T17:54:13;10.35;;;1.38;;
67747;SDS011;54543;50.712;6.070;2023-02-05T17:56:41;11.10;;;1.80;;
67747;SDS011;54543;50.712;6.070;2023-02-05T17:59:12;6.72;;;1.40;;
67747;SDS011;54543;50.712;6.070;2023-02-05T18:01:39;6.78;;;1.20;;
67747;SDS011;54543;50.712;6.070;2023-02-05T18:04:05;5.95;;;1.20;;
67747;SDS011;54543;50.712;6.070;2023-02-05T18:06:30;4.75;;;1.63;;
67747;SDS011;54543;50.712;6.070;2023-02-05T18:08:56;9.15;;;1.58;;
67747;SDS011;54543;50.712;6.070;2023-02-05T18:11:24;6.30;;;1.45;;
67747;SDS011;54543;50.712;6.070;2023-02-05T18:13:50;5.88;;;1.10;;
67747;SDS011;54543;50.712;6.070;2023-02-05T18:16:15;7.78;;;1.55;;
67747;SDS011;54543;50.712;6.070;2023-02-05T18:18:41;8.60;;;1.30;;
67747;SDS011;54543;50.712;6.070;2023-02-05T18:21:07;6.05;;;1.20;;
67747;SDS011;54543;50.712;6.070;2023-02-05T18:23:32;10.00;;;1.60;;
67747;SDS011;54543;50.712;6.070;2023-02-05T18:26:00;5.43;;;1.30;;
67747;SDS011;54543;50.712;6.070;2023-02-05T18:28:28;8.57;;;1.77;;